sensor_id;sensor_type;location;lat;lon;timestamp;P1;durP1;ratioP1;P2;durP2;ratioP2
48765;SDS011;65794;51.836;5.002;2023-09-19T00:00:42;7.88;;;1.77;;
48765;SDS011;65794;51.836;5.002;2023-09-19T00:03:10;6.35;;;1.65;;
48765;SDS011;65794;51.836;5.002;2023-09-19T00:05:39;10.77;;;1.88;;
48765;SDS011;65794;51.836;5.002;2023-09-19T00:08:05;5.82;;;1.42;;
48765;SDS011;65794;51.836;5.002;2023-09-19T00:10:33;9.23;;;1.92;;
48765;SDS011;65794;51.836;5.002;2023-09-19T00:13:02;8.65;;;1.80;;
48765;SDS011;65794;51.836;5.002;2023-09-19T00:15:41;10.52;;;2.00;;
48765;SDS011;65794;51.836;5.002;2023-09-19T00:18:08;7.35;;;1.90;;
48765;SDS011;65794;51.836;5.002;2023-09-19T00:20:36;13.82;;;1.63;;
48765;SDS011;65794;51.836;5.002;2023-09-19T00:23:03;12.05;;;2.03;;
48765;SDS011;65794;51.836;5.002;2023-09-19T00:25:30;13.43;;;2.25;;
48765;SDS011;65794;51.836;5.002;2023-09-19T00:27:59;10.25;;;1.85;;
48765;SDS011;65794;51.836;5.002;2023-09-19T00:30:26;6.72;;;1.75;;
48765;SDS011;65794;51.836;5.002;2023-09-19T00:32:53;9.70;;;1.90;;
48765;SDS011;65794;51.836;5.002;2023-09-19T00:35:21;8.80;;;1.60;;
48765;SDS011;65794;51.836;5.002;2023-09-19T00:37:51;9.38;;;2.17;;
48765;SDS011;65794;51.836;5.002;2023-09-19T00:40:19;11.30;;;1.92;;
48765;SDS011;65794;51.836;5.002;2023-09-19T00:42:46;11.68;;;2.05;;
48765;SDS011;65794;51.836;5.002;2023-09-19T00:45:13;8.15;;;1.75;;
48765;SDS011;65794;51.836;5.002;2023-09-19T00:47:45;10.10;;;2.13;;
48765;SDS011;65794;51.836;5.002;2023-09-19T00:50:13;13.43;;;2.03;;
48765;SDS011;65794;51.836;5.002;2023-09-19T00:52:42;9.13;;;1.90;;
48765;SDS011;65794;51.836;5.002;2023-09-19T00:55:09;8.25;;;2.08;;
48765;SDS011;65794;51.836;5.002;2023-09-19T00:57:37;13.70;;;1.85;;
48765;SDS011;65794;51.836;5.002;2023-09-19T01:00:07;11.65;;;1.75;;
48765;SDS011;65794;51.836;5.002;2023-09-19T01:02:37;10.43;;;2.40;;
48765;SDS011;65794;51.836;5.002;2023-09-19T01:05:04;8.65;;;1.70;;
48765;SDS011;65794;51.836;5.002;2023-09-19T01:07:32;6.47;;;1.60;;
48765;SDS011;65794;51.836;5.002;2023-09-19T01:10:03;10.95;;;2.00;;
48765;SDS011;65794;51.836;5.002;2023-09-19T01:15:38;3.22;;;0.90;;
48765;SDS011;65794;51.836;5.002;2023-09-19T01:18:19;10.35;;;1.85;;
48765;SDS011;65794;51.836;5.002;2023-09-19T01:28:48;14.02;;;1.52;;
48765;SDS011;65794;51.836;5.002;2023-09-19T01:31:21;16.50;;;2.10;;
48765;SDS011;65794;51.836;5.002;2023-09-19T01:33:53;13.60;;;1.75;;
48765;SDS011;65794;51.836;5.002;2023-09-19T01:36:24;8.23;;;1.98;;
48765;SDS011;65794;51.836;5.002;2023-09-19T01:38:51;16.05;;;1.73;;
48765;SDS011;65794;51.836;5.002;2023-09-19T01:41:21;12.18;;;2.55;;
48765;SDS011;65794;51.836;5.002;2023-09-19T01:43:52;14.82;;;2.30;;
48765;SDS011;65794;51.836;5.002;2023-09-19T01:46:25;10.98;;;2.10;;
48765;SDS011;65794;51.836;5.002;2023-09-19T01:51:22;10.65;;;1.98;;
48765;SDS011;65794;51.836;5.002;2023-09-19T01:53:55;8.32;;;1.48;;
48765;SDS011;65794;51.836;5.002;2023-09-19T01:56:37;12.65;;;1.58;;
48765;SDS011;65794;51.836;5.002;2023-09-19T01:59:24;13.07;;;1.55;;
48765;SDS011;65794;51.836;5.002;2023-09-19T02:01:54;10.65;;;1.63;;
48765;SDS011;65794;51.836;5.002;2023-09-19T02:04:21;18.02;;;2.00;;
48765;SDS011;65794;51.836;5.002;2023-09-19T02:06:48;8.77;;;1.52;;
48765;SDS011;65794;51.836;5.002;2023-09-19T02:09:15;11.23;;;1.67;;
48765;SDS011;65794;51.836;5.002;2023-09-19T02:11:42;9.90;;;1.95;;
48765;SDS011;65794;51.836;5.002;2023-09-19T02:14:08;11.38;;;1.85;;
48765;SDS011;65794;51.836;5.002;2023-09-19T02:16:35;16.10;;;2.63;;
48765;SDS011;65794;51.836;5.002;2023-09-19T02:19:03;9.88;;;1.30;;
48765;SDS011;65794;51.836;5.002;2023-09-19T02:21:32;8.30;;;2.13;;
48765;SDS011;65794;51.836;5.002;2023-09-19T02:23:59;8.82;;;1.77;;
48765;SDS011;65794;51.836;5.002;2023-09-19T02:26:26;8.13;;;1.70;;
48765;SDS011;65794;51.836;5.002;2023-09-19T02:28:56;15.60;;;1.88;;
48765;SDS011;65794;51.836;5.002;2023-09-19T02:31:23;8.10;;;1.60;;
48765;SDS011;65794;51.836;5.002;2023-09-19T02:33:50;15.27;;;1.90;;
48765;SDS011;65794;51.836;5.002;2023-09-19T02:36:17;10.32;;;1.60;;
48765;SDS011;65794;51.836;5.002;2023-09-19T02:38:44;11.43;;;1.95;;
48765;SDS011;65794;51.836;5.002;2023-09-19T02:41:11;18.02;;;2.25;;
48765;SDS011;65794;51.836;5.002;2023-09-19T02:43:38;8.20;;;1.85;;
48765;SDS011;65794;51.836;5.002;2023-09-19T02:46:06;8.23;;;1.35;;
48765;SDS011;65794;51.836;5.002;2023-09-19T02:48:33;8.23;;;1.50;;
48765;SDS011;65794;51.836;5.002;2023-09-19T02:51:01;14.23;;;1.73;;
48765;SDS011;65794;51.836;5.002;2023-09-19T02:53:27;12.57;;;1.95;;
48765;SDS011;65794;51.836;5.002;2023-09-19T02:55:54;6.93;;;1.48;;
48765;SDS011;65794;51.836;5.002;2023-09-19T02:58:21;9.40;;;1.75;;
48765;SDS011;65794;51.836;5.002;2023-09-19T03:00:50;13.23;;;1.45;;
48765;SDS011;65794;51.836;5.002;2023-09-19T03:03:19;8.80;;;1.50;;
48765;SDS011;65794;51.836;5.002;2023-09-19T03:05:46;9.68;;;1.42;;
48765;SDS011;65794;51.836;5.002;2023-09-19T03:08:15;7.55;;;2.08;;
48765;SDS011;65794;51.836;5.002;2023-09-19T03:10:46;6.43;;;1.10;;
48765;SDS011;65794;51.836;5.002;2023-09-19T03:13:13;7.20;;;1.08;;
48765;SDS011;65794;51.836;5.002;2023-09-19T03:15:41;7.72;;;1.80;;
48765;SDS011;65794;51.836;5.002;2023-09-19T03:18:10;12.07;;;1.38;;
48765;SDS011;65794;51.836;5.002;2023-09-19T03:20:38;8.90;;;1.92;;
48765;SDS011;65794;51.836;5.002;2023-09-19T03:23:05;8.63;;;1.58;;
48765;SDS011;65794;51.836;5.002;2023-09-19T03:25:34;9.10;;;1.50;;
48765;SDS011;65794;51.836;5.002;2023-09-19T03:28:02;13.63;;;1.77;;
48765;SDS011;65794;51.836;5.002;2023-09-19T03:30:32;12.10;;;1.70;;
48765;SDS011;65794;51.836;5.002;2023-09-19T03:33:02;9.48;;;1.98;;
48765;SDS011;65794;51.836;5.002;2023-09-19T03:35:32;6.55;;;1.10;;
48765;SDS011;65794;51.836;5.002;2023-09-19T03:38:00;10.30;;;1.75;;
48765;SDS011;65794;51.836;5.002;2023-09-19T03:40:27;12.73;;;1.65;;
48765;SDS011;65794;51.836;5.002;2023-09-19T03:42:53;14.70;;;2.08;;
48765;SDS011;65794;51.836;5.002;2023-09-19T03:45:21;11.40;;;1.73;;
48765;SDS011;65794;51.836;5.002;2023-09-19T03:47:51;9.63;;;1.45;;
48765;SDS011;65794;51.836;5.002;2023-09-19T03:50:20;15.02;;;1.80;;
48765;SDS011;65794;51.836;5.002;2023-09-19T03:52:47;8.60;;;1.70;;
48765;SDS011;65794;51.836;5.002;2023-09-19T03:55:14;12.55;;;1.38;;
48765;SDS011;65794;51.836;5.002;2023-09-19T03:57:41;9.38;;;1.73;;
48765;SDS011;65794;51.836;5.002;2023-09-19T04:00:08;8.20;;;1.88;;
48765;SDS011;65794;51.836;5.002;2023-09-19T04:02:39;7.78;;;1.60;;
48765;SDS011;65794;51.836;5.002;2023-09-19T04:05:07;7.60;;;1.63;;
48765;SDS011;65794;51.836;5.002;2023-09-19T04:07:35;14.68;;;2.03;;
48765;SDS011;65794;51.836;5.002;2023-09-19T04:10:02;6.85;;;1.52;;
48765;SDS011;65794;51.836;5.002;2023-09-19T04:12:30;9.57;;;1.83;;
48765;SDS011;65794;51.836;5.002;2023-09-19T04:14:57;11.70;;;1.70;;
48765;SDS011;65794;51.836;5.002;2023-09-19T04:17:25;13.23;;;1.60;;
48765;SDS011;65794;51.836;5.002;2023-09-19T04:19:52;9.90;;;1.88;;
48765;SDS011;65794;51.836;5.002;2023-09-19T04:22:20;14.95;;;1.50;;
48765;SDS011;65794;51.836;5.002;2023-09-19T04:24:47;10.27;;;1.52;;
48765;SDS011;65794;51.836;5.002;2023-09-19T04:27:14;8.98;;;2.05;;
48765;SDS011;65794;51.836;5.002;2023-09-19T04:29:41;9.82;;;2.13;;
48765;SDS011;65794;51.836;5.002;2023-09-19T04:32:08;10.35;;;1.88;;
48765;SDS011;65794;51.836;5.002;2023-09-19T04:34:36;5.53;;;1.00;;
48765;SDS011;65794;51.836;5.002;2023-09-19T04:37:05;9.25;;;1.50;;
48765;SDS011;65794;51.836;5.002;2023-09-19T04:39:32;22.02;;;2.00;;
48765;SDS011;65794;51.836;5.002;2023-09-19T04:42:00;12.18;;;1.67;;
48765;SDS011;65794;51.836;5.002;2023-09-19T04:44:27;11.88;;;1.67;;
48765;SDS011;65794;51.836;5.002;2023-09-19T04:46:54;8.73;;;1.48;;
48765;SDS011;65794;51.836;5.002;2023-09-19T04:49:21;13.35;;;1.70;;
48765;SDS011;65794;51.836;5.002;2023-09-19T04:51:48;9.30;;;1.42;;
48765;SDS011;65794;51.836;5.002;2023-09-19T04:54:15;11.45;;;1.52;;
48765;SDS011;65794;51.836;5.002;2023-09-19T04:56:42;12.43;;;2.13;;
48765;SDS011;65794;51.836;5.002;2023-09-19T04:59:09;11.68;;;1.98;;
48765;SDS011;65794;51.836;5.002;2023-09-19T05:01:37;7.00;;;1.63;;
48765;SDS011;65794;51.836;5.002;2023-09-19T05:04:04;19.63;;;2.63;;
48765;SDS011;65794;51.836;5.002;2023-09-19T05:06:32;14.13;;;1.45;;
48765;SDS011;65794;51.836;5.002;2023-09-19T05:09:00;9.13;;;1.70;;
48765;SDS011;65794;51.836;5.002;2023-09-19T05:11:27;11.20;;;2.15;;
48765;SDS011;65794;51.836;5.002;2023-09-19T05:13:54;8.68;;;1.77;;
48765;SDS011;65794;51.836;5.002;2023-09-19T05:16:21;10.32;;;1.98;;
48765;SDS011;65794;51.836;5.002;2023-09-19T05:18:48;11.60;;;1.80;;
48765;SDS011;65794;51.836;5.002;2023-09-19T05:21:16;14.10;;;2.20;;
48765;SDS011;65794;51.836;5.002;2023-09-19T05:23:44;8.90;;;1.67;;
48765;SDS011;65794;51.836;5.002;2023-09-19T05:26:11;13.43;;;1.83;;
48765;SDS011;65794;51.836;5.002;2023-09-19T05:28:39;13.98;;;2.15;;
48765;SDS011;65794;51.836;5.002;2023-09-19T05:31:06;14.48;;;1.90;;
48765;SDS011;65794;51.836;5.002;2023-09-19T05:33:33;8.38;;;1.80;;
48765;SDS011;65794;51.836;5.002;2023-09-19T05:36:00;9.32;;;1.85;;
48765;SDS011;65794;51.836;5.002;2023-09-19T05:38:27;9.30;;;2.10;;
48765;SDS011;65794;51.836;5.002;2023-09-19T05:40:54;11.63;;;1.92;;
48765;SDS011;65794;51.836;5.002;2023-09-19T05:43:21;12.80;;;1.88;;
48765;SDS011;65794;51.836;5.002;2023-09-19T05:45:48;7.93;;;1.40;;
48765;SDS011;65794;51.836;5.002;2023-09-19T05:48:18;11.80;;;1.58;;
48765;SDS011;65794;51.836;5.002;2023-09-19T05:50:48;10.23;;;1.42;;
48765;SDS011;65794;51.836;5.002;2023-09-19T05:53:15;11.35;;;2.05;;
48765;SDS011;65794;51.836;5.002;2023-09-19T05:55:45;11.80;;;1.50;;
48765;SDS011;65794;51.836;5.002;2023-09-19T05:58:12;10.98;;;1.60;;
48765;SDS011;65794;51.836;5.002;2023-09-19T06:00:43;13.65;;;1.65;;
48765;SDS011;65794;51.836;5.002;2023-09-19T06:03:11;8.93;;;2.25;;
48765;SDS011;65794;51.836;5.002;2023-09-19T06:05:38;15.68;;;2.28;;
48765;SDS011;65794;51.836;5.002;2023-09-19T06:08:06;9.68;;;1.48;;
48765;SDS011;65794;51.836;5.002;2023-09-19T06:10:34;10.23;;;1.70;;
48765;SDS011;65794;51.836;5.002;2023-09-19T06:13:02;15.43;;;2.25;;
48765;SDS011;65794;51.836;5.002;2023-09-19T06:15:31;12.73;;;2.05;;
48765;SDS011;65794;51.836;5.002;2023-09-19T06:18:00;8.48;;;1.42;;
48765;SDS011;65794;51.836;5.002;2023-09-19T06:20:29;12.02;;;1.70;;
48765;SDS011;65794;51.836;5.002;2023-09-19T06:22:56;13.23;;;2.03;;
48765;SDS011;65794;51.836;5.002;2023-09-19T06:25:23;14.10;;;1.77;;
48765;SDS011;65794;51.836;5.002;2023-09-19T06:27:50;14.77;;;2.05;;
48765;SDS011;65794;51.836;5.002;2023-09-19T06:30:23;11.73;;;1.80;;
48765;SDS011;65794;51.836;5.002;2023-09-19T06:32:58;10.30;;;2.10;;
48765;SDS011;65794;51.836;5.002;2023-09-19T06:35:25;13.43;;;2.05;;
48765;SDS011;65794;51.836;5.002;2023-09-19T06:37:53;11.13;;;1.60;;
48765;SDS011;65794;51.836;5.002;2023-09-19T06:40:20;11.57;;;1.92;;
48765;SDS011;65794;51.836;5.002;2023-09-19T06:42:49;9.02;;;1.80;;
48765;SDS011;65794;51.836;5.002;2023-09-19T06:45:16;9.80;;;1.85;;
48765;SDS011;65794;51.836;5.002;2023-09-19T06:47:46;12.10;;;2.08;;
48765;SDS011;65794;51.836;5.002;2023-09-19T06:50:18;9.75;;;1.58;;
48765;SDS011;65794;51.836;5.002;2023-09-19T06:52:49;16.60;;;1.98;;
48765;SDS011;65794;51.836;5.002;2023-09-19T06:55:17;12.38;;;2.28;;
48765;SDS011;65794;51.836;5.002;2023-09-19T06:57:47;8.95;;;1.75;;
48765;SDS011;65794;51.836;5.002;2023-09-19T07:00:14;21.48;;;1.90;;
48765;SDS011;65794;51.836;5.002;2023-09-19T07:05:21;5.82;;;1.52;;
48765;SDS011;65794;51.836;5.002;2023-09-19T07:07:48;8.98;;;1.67;;
48765;SDS011;65794;51.836;5.002;2023-09-19T07:10:15;10.77;;;2.05;;
48765;SDS011;65794;51.836;5.002;2023-09-19T07:12:42;14.15;;;2.38;;
48765;SDS011;65794;51.836;5.002;2023-09-19T07:15:09;13.65;;;2.30;;
48765;SDS011;65794;51.836;5.002;2023-09-19T07:17:36;11.40;;;1.77;;
48765;SDS011;65794;51.836;5.002;2023-09-19T07:20:03;15.70;;;1.95;;
48765;SDS011;65794;51.836;5.002;2023-09-19T07:22:34;9.88;;;1.83;;
48765;SDS011;65794;51.836;5.002;2023-09-19T07:25:01;15.88;;;2.50;;
48765;SDS011;65794;51.836;5.002;2023-09-19T07:27:28;9.98;;;1.63;;
48765;SDS011;65794;51.836;5.002;2023-09-19T07:29:55;13.48;;;2.30;;
48765;SDS011;65794;51.836;5.002;2023-09-19T07:32:22;12.85;;;1.73;;
48765;SDS011;65794;51.836;5.002;2023-09-19T07:34:50;11.50;;;2.08;;
48765;SDS011;65794;51.836;5.002;2023-09-19T07:37:17;13.77;;;1.60;;
48765;SDS011;65794;51.836;5.002;2023-09-19T07:39:44;12.00;;;1.85;;
48765;SDS011;65794;51.836;5.002;2023-09-19T07:42:11;10.90;;;2.17;;
48765;SDS011;65794;51.836;5.002;2023-09-19T07:44:44;10.23;;;1.80;;
48765;SDS011;65794;51.836;5.002;2023-09-19T07:47:14;12.85;;;2.15;;
48765;SDS011;65794;51.836;5.002;2023-09-19T07:49:41;8.32;;;1.85;;
48765;SDS011;65794;51.836;5.002;2023-09-19T07:52:09;12.45;;;1.73;;
48765;SDS011;65794;51.836;5.002;2023-09-19T07:54:36;8.63;;;1.80;;
48765;SDS011;65794;51.836;5.002;2023-09-19T07:57:05;13.27;;;1.90;;
48765;SDS011;65794;51.836;5.002;2023-09-19T07:59:32;15.85;;;1.65;;
48765;SDS011;65794;51.836;5.002;2023-09-19T08:01:59;13.35;;;1.73;;
48765;SDS011;65794;51.836;5.002;2023-09-19T08:04:27;9.57;;;1.85;;
48765;SDS011;65794;51.836;5.002;2023-09-19T08:06:55;15.80;;;2.03;;
48765;SDS011;65794;51.836;5.002;2023-09-19T08:09:22;10.55;;;2.10;;
48765;SDS011;65794;51.836;5.002;2023-09-19T08:11:51;6.47;;;1.52;;
48765;SDS011;65794;51.836;5.002;2023-09-19T08:14:18;11.77;;;1.65;;
48765;SDS011;65794;51.836;5.002;2023-09-19T08:16:45;15.95;;;1.85;;
48765;SDS011;65794;51.836;5.002;2023-09-19T08:19:12;11.50;;;2.22;;
48765;SDS011;65794;51.836;5.002;2023-09-19T08:21:38;11.60;;;1.60;;
48765;SDS011;65794;51.836;5.002;2023-09-19T08:24:05;11.13;;;2.20;;
48765;SDS011;65794;51.836;5.002;2023-09-19T08:26:32;10.55;;;1.90;;
48765;SDS011;65794;51.836;5.002;2023-09-19T08:28:59;9.57;;;1.42;;
48765;SDS011;65794;51.836;5.002;2023-09-19T08:31:32;12.55;;;2.65;;
48765;SDS011;65794;51.836;5.002;2023-09-19T08:34:00;11.13;;;1.92;;
48765;SDS011;65794;51.836;5.002;2023-09-19T08:36:27;11.88;;;1.63;;
48765;SDS011;65794;51.836;5.002;2023-09-19T08:38:54;9.00;;;1.92;;
48765;SDS011;65794;51.836;5.002;2023-09-19T08:41:20;9.35;;;2.00;;
48765;SDS011;65794;51.836;5.002;2023-09-19T08:43:47;6.50;;;1.58;;
48765;SDS011;65794;51.836;5.002;2023-09-19T08:46:15;11.80;;;2.00;;
48765;SDS011;65794;51.836;5.002;2023-09-19T08:48:44;6.50;;;1.33;;
48765;SDS011;65794;51.836;5.002;2023-09-19T08:51:12;11.88;;;2.08;;
48765;SDS011;65794;51.836;5.002;2023-09-19T08:54:25;11.80;;;1.98;;
48765;SDS011;65794;51.836;5.002;2023-09-19T08:56:33;11.43;;;1.45;;
48765;SDS011;65794;51.836;5.002;2023-09-19T08:59:02;13.05;;;1.63;;
48765;SDS011;65794;51.836;5.002;2023-09-19T09:01:29;21.98;;;2.50;;
48765;SDS011;65794;51.836;5.002;2023-09-19T09:03:59;13.57;;;1.85;;
48765;SDS011;65794;51.836;5.002;2023-09-19T09:06:25;10.98;;;1.42;;
48765;SDS011;65794;51.836;5.002;2023-09-19T09:08:54;11.40;;;1.88;;
48765;SDS011;65794;51.836;5.002;2023-09-19T09:11:21;10.57;;;1.50;;
48765;SDS011;65794;51.836;5.002;2023-09-19T09:13:51;8.15;;;1.33;;
48765;SDS011;65794;51.836;5.002;2023-09-19T09:16:18;14.20;;;2.33;;
48765;SDS011;65794;51.836;5.002;2023-09-19T09:18:46;11.93;;;2.20;;
48765;SDS011;65794;51.836;5.002;2023-09-19T09:21:19;10.60;;;2.25;;
48765;SDS011;65794;51.836;5.002;2023-09-19T09:23:48;13.45;;;1.85;;
48765;SDS011;65794;51.836;5.002;2023-09-19T09:26:16;11.98;;;1.88;;
48765;SDS011;65794;51.836;5.002;2023-09-19T09:28:46;11.63;;;1.83;;
48765;SDS011;65794;51.836;5.002;2023-09-19T09:31:21;9.43;;;1.63;;
48765;SDS011;65794;51.836;5.002;2023-09-19T09:33:55;8.48;;;1.30;;
48765;SDS011;65794;51.836;5.002;2023-09-19T09:36:35;16.17;;;1.50;;
48765;SDS011;65794;51.836;5.002;2023-09-19T09:39:03;12.18;;;1.52;;
48765;SDS011;65794;51.836;5.002;2023-09-19T09:41:43;11.80;;;1.83;;
48765;SDS011;65794;51.836;5.002;2023-09-19T09:44:13;10.38;;;1.70;;
48765;SDS011;65794;51.836;5.002;2023-09-19T09:46:45;13.48;;;1.70;;
48765;SDS011;65794;51.836;5.002;2023-09-19T09:49:41;11.20;;;1.50;;
48765;SDS011;65794;51.836;5.002;2023-09-19T09:55:00;11.30;;;1.58;;
48765;SDS011;65794;51.836;5.002;2023-09-19T09:57:34;9.00;;;1.50;;
48765;SDS011;65794;51.836;5.002;2023-09-19T10:00:02;10.38;;;1.85;;
48765;SDS011;65794;51.836;5.002;2023-09-19T10:02:38;5.38;;;1.08;;
48765;SDS011;65794;51.836;5.002;2023-09-19T10:05:12;11.52;;;2.08;;
48765;SDS011;65794;51.836;5.002;2023-09-19T10:07:55;12.82;;;1.55;;
48765;SDS011;65794;51.836;5.002;2023-09-19T10:10:37;10.75;;;1.70;;
48765;SDS011;65794;51.836;5.002;2023-09-19T10:13:21;12.93;;;1.63;;
48765;SDS011;65794;51.836;5.002;2023-09-19T10:15:50;10.18;;;1.50;;
48765;SDS011;65794;51.836;5.002;2023-09-19T10:18:27;12.30;;;1.60;;
48765;SDS011;65794;51.836;5.002;2023-09-19T10:20:56;9.23;;;0.90;;
48765;SDS011;65794;51.836;5.002;2023-09-19T10:23:23;7.50;;;1.13;;
48765;SDS011;65794;51.836;5.002;2023-09-19T10:25:52;13.43;;;1.77;;
48765;SDS011;65794;51.836;5.002;2023-09-19T10:28:20;8.35;;;1.60;;
48765;SDS011;65794;51.836;5.002;2023-09-19T10:30:50;15.77;;;1.58;;
48765;SDS011;65794;51.836;5.002;2023-09-19T10:33:18;7.55;;;1.33;;
48765;SDS011;65794;51.836;5.002;2023-09-19T10:35:48;9.40;;;1.10;;
48765;SDS011;65794;51.836;5.002;2023-09-19T10:38:18;15.82;;;1.50;;
48765;SDS011;65794;51.836;5.002;2023-09-19T10:40:51;7.30;;;1.30;;
48765;SDS011;65794;51.836;5.002;2023-09-19T10:43:19;5.43;;;1.00;;
48765;SDS011;65794;51.836;5.002;2023-09-19T10:45:48;4.50;;;1.10;;
48765;SDS011;65794;51.836;5.002;2023-09-19T10:48:16;5.80;;;1.05;;
48765;SDS011;65794;51.836;5.002;2023-09-19T10:51:33;7.55;;;1.17;;
48765;SDS011;65794;51.836;5.002;2023-09-19T10:53:45;11.60;;;1.25;;
48765;SDS011;65794;51.836;5.002;2023-09-19T10:56:18;6.82;;;0.98;;
48765;SDS011;65794;51.836;5.002;2023-09-19T10:58:45;9.52;;;1.33;;
48765;SDS011;65794;51.836;5.002;2023-09-19T11:01:12;11.20;;;1.27;;
48765;SDS011;65794;51.836;5.002;2023-09-19T11:03:41;12.80;;;1.35;;
48765;SDS011;65794;51.836;5.002;2023-09-19T11:06:12;8.93;;;1.40;;
48765;SDS011;65794;51.836;5.002;2023-09-19T11:08:59;5.55;;;1.10;;
48765;SDS011;65794;51.836;5.002;2023-09-19T11:11:43;8.48;;;0.82;;
48765;SDS011;65794;51.836;5.002;2023-09-19T11:22:21;3.28;;;0.68;;
48765;SDS011;65794;51.836;5.002;2023-09-19T11:24:48;6.88;;;0.95;;
48765;SDS011;65794;51.836;5.002;2023-09-19T11:27:17;6.22;;;0.82;;
48765;SDS011;65794;51.836;5.002;2023-09-19T11:29:44;7.25;;;1.45;;
48765;SDS011;65794;51.836;5.002;2023-09-19T11:32:11;6.68;;;1.35;;
48765;SDS011;65794;51.836;5.002;2023-09-19T11:34:43;5.78;;;0.85;;
48765;SDS011;65794;51.836;5.002;2023-09-19T11:39:39;8.43;;;1.00;;
48765;SDS011;65794;51.836;5.002;2023-09-19T11:44:53;6.80;;;0.85;;
48765;SDS011;65794;51.836;5.002;2023-09-19T11:47:22;11.02;;;1.15;;
48765;SDS011;65794;51.836;5.002;2023-09-19T11:49:51;6.68;;;0.90;;
48765;SDS011;65794;51.836;5.002;2023-09-19T11:52:22;2.88;;;0.70;;
48765;SDS011;65794;51.836;5.002;2023-09-19T11:54:55;4.03;;;0.88;;
48765;SDS011;65794;51.836;5.002;2023-09-19T11:57:23;5.00;;;0.70;;
48765;SDS011;65794;51.836;5.002;2023-09-19T11:59:51;3.95;;;0.77;;
48765;SDS011;65794;51.836;5.002;2023-09-19T12:02:27;5.78;;;0.90;;
48765;SDS011;65794;51.836;5.002;2023-09-19T12:05:01;4.63;;;0.75;;
48765;SDS011;65794;51.836;5.002;2023-09-19T12:07:28;3.63;;;0.60;;
48765;SDS011;65794;51.836;5.002;2023-09-19T12:10:04;4.22;;;0.60;;
48765;SDS011;65794;51.836;5.002;2023-09-19T12:12:32;5.45;;;0.73;;
48765;SDS011;65794;51.836;5.002;2023-09-19T12:15:02;5.13;;;0.90;;
48765;SDS011;65794;51.836;5.002;2023-09-19T12:17:35;2.60;;;0.60;;
48765;SDS011;65794;51.836;5.002;2023-09-19T12:20:02;3.83;;;0.77;;
48765;SDS011;65794;51.836;5.002;2023-09-19T12:22:40;3.70;;;0.60;;
48765;SDS011;65794;51.836;5.002;2023-09-19T12:25:07;7.68;;;0.80;;
48765;SDS011;65794;51.836;5.002;2023-09-19T12:27:44;3.00;;;0.60;;
48765;SDS011;65794;51.836;5.002;2023-09-19T12:30:13;5.80;;;0.57;;
48765;SDS011;65794;51.836;5.002;2023-09-19T12:32:53;6.28;;;0.65;;
48765;SDS011;65794;51.836;5.002;2023-09-19T12:35:29;6.00;;;0.70;;
48765;SDS011;65794;51.836;5.002;2023-09-19T12:37:57;2.47;;;0.57;;
48765;SDS011;65794;51.836;5.002;2023-09-19T12:40:25;6.57;;;0.80;;
48765;SDS011;65794;51.836;5.002;2023-09-19T12:42:56;4.68;;;0.77;;
48765;SDS011;65794;51.836;5.002;2023-09-19T12:45:25;6.07;;;0.80;;
48765;SDS011;65794;51.836;5.002;2023-09-19T12:51:02;7.38;;;1.00;;
48765;SDS011;65794;51.836;5.002;2023-09-19T12:56:16;4.35;;;0.70;;
48765;SDS011;65794;51.836;5.002;2023-09-19T13:01:16;4.65;;;0.80;;
48765;SDS011;65794;51.836;5.002;2023-09-19T13:03:44;6.38;;;0.63;;
48765;SDS011;65794;51.836;5.002;2023-09-19T13:06:34;2.42;;;0.70;;
48765;SDS011;65794;51.836;5.002;2023-09-19T13:09:09;3.85;;;0.70;;
48765;SDS011;65794;51.836;5.002;2023-09-19T13:11:37;7.22;;;0.77;;
48765;SDS011;65794;51.836;5.002;2023-09-19T13:19:38;4.15;;;0.60;;
48765;SDS011;65794;51.836;5.002;2023-09-19T13:24:52;2.97;;;0.57;;
48765;SDS011;65794;51.836;5.002;2023-09-19T13:27:19;1.30;;;0.40;;
48765;SDS011;65794;51.836;5.002;2023-09-19T13:29:46;2.67;;;0.55;;
48765;SDS011;65794;51.836;5.002;2023-09-19T13:32:13;3.92;;;0.60;;
48765;SDS011;65794;51.836;5.002;2023-09-19T13:34:40;8.07;;;1.08;;
48765;SDS011;65794;51.836;5.002;2023-09-19T13:37:06;2.13;;;0.50;;
48765;SDS011;65794;51.836;5.002;2023-09-19T13:39:33;1.60;;;0.40;;
48765;SDS011;65794;51.836;5.002;2023-09-19T13:42:00;9.43;;;0.75;;
48765;SDS011;65794;51.836;5.002;2023-09-19T13:44:29;4.47;;;0.73;;
48765;SDS011;65794;51.836;5.002;2023-09-19T13:46:56;7.53;;;0.82;;
48765;SDS011;65794;51.836;5.002;2023-09-19T13:49:24;17.20;;;0.70;;
48765;SDS011;65794;51.836;5.002;2023-09-19T13:51:52;5.30;;;0.77;;
48765;SDS011;65794;51.836;5.002;2023-09-19T13:54:20;4.30;;;0.70;;
48765;SDS011;65794;51.836;5.002;2023-09-19T13:56:47;4.93;;;0.98;;
48765;SDS011;65794;51.836;5.002;2023-09-19T13:59:14;7.50;;;0.73;;
48765;SDS011;65794;51.836;5.002;2023-09-19T14:01:41;7.57;;;0.60;;
48765;SDS011;65794;51.836;5.002;2023-09-19T14:04:08;3.30;;;0.70;;
48765;SDS011;65794;51.836;5.002;2023-09-19T14:06:36;10.57;;;1.17;;
48765;SDS011;65794;51.836;5.002;2023-09-19T14:09:04;2.72;;;0.70;;
48765;SDS011;65794;51.836;5.002;2023-09-19T14:11:30;6.07;;;1.13;;
48765;SDS011;65794;51.836;5.002;2023-09-19T14:13:57;3.15;;;0.80;;
48765;SDS011;65794;51.836;5.002;2023-09-19T14:16:26;6.30;;;1.00;;
48765;SDS011;65794;51.836;5.002;2023-09-19T14:18:57;6.63;;;1.00;;
48765;SDS011;65794;51.836;5.002;2023-09-19T14:21:25;3.90;;;1.00;;
48765;SDS011;65794;51.836;5.002;2023-09-19T14:23:53;4.28;;;0.70;;
48765;SDS011;65794;51.836;5.002;2023-09-19T14:26:21;6.82;;;1.17;;
48765;SDS011;65794;51.836;5.002;2023-09-19T14:28:50;8.60;;;1.05;;
48765;SDS011;65794;51.836;5.002;2023-09-19T14:31:17;3.50;;;1.00;;
48765;SDS011;65794;51.836;5.002;2023-09-19T14:33:45;5.85;;;0.80;;
48765;SDS011;65794;51.836;5.002;2023-09-19T14:36:13;8.15;;;0.77;;
48765;SDS011;65794;51.836;5.002;2023-09-19T14:38:41;4.15;;;1.05;;
48765;SDS011;65794;51.836;5.002;2023-09-19T14:41:08;5.80;;;1.20;;
48765;SDS011;65794;51.836;5.002;2023-09-19T14:43:36;6.10;;;1.20;;
48765;SDS011;65794;51.836;5.002;2023-09-19T14:46:03;6.32;;;1.15;;
48765;SDS011;65794;51.836;5.002;2023-09-19T14:48:31;7.25;;;1.27;;
48765;SDS011;65794;51.836;5.002;2023-09-19T14:51:04;3.33;;;0.90;;
48765;SDS011;65794;51.836;5.002;2023-09-19T14:53:32;5.32;;;0.90;;
48765;SDS011;65794;51.836;5.002;2023-09-19T14:56:02;10.68;;;1.17;;
48765;SDS011;65794;51.836;5.002;2023-09-19T14:58:32;4.47;;;0.95;;
48765;SDS011;65794;51.836;5.002;2023-09-19T15:01:03;5.55;;;1.25;;
48765;SDS011;65794;51.836;5.002;2023-09-19T15:03:35;4.75;;;0.90;;
48765;SDS011;65794;51.836;5.002;2023-09-19T15:06:07;5.90;;;1.02;;
48765;SDS011;65794;51.836;5.002;2023-09-19T15:08:35;7.40;;;0.90;;
48765;SDS011;65794;51.836;5.002;2023-09-19T15:11:06;7.05;;;0.90;;
48765;SDS011;65794;51.836;5.002;2023-09-19T15:13:33;4.63;;;1.08;;
48765;SDS011;65794;51.836;5.002;2023-09-19T15:16:01;3.47;;;1.00;;
48765;SDS011;65794;51.836;5.002;2023-09-19T15:18:28;8.55;;;1.20;;
48765;SDS011;65794;51.836;5.002;2023-09-19T15:21:00;3.47;;;1.10;;
48765;SDS011;65794;51.836;5.002;2023-09-19T15:23:26;5.22;;;1.00;;
48765;SDS011;65794;51.836;5.002;2023-09-19T15:25:58;5.00;;;0.95;;
48765;SDS011;65794;51.836;5.002;2023-09-19T15:28:25;6.05;;;0.88;;
48765;SDS011;65794;51.836;5.002;2023-09-19T15:31:04;3.03;;;0.90;;
48765;SDS011;65794;51.836;5.002;2023-09-19T15:33:32;6.53;;;0.98;;
48765;SDS011;65794;51.836;5.002;2023-09-19T15:36:09;4.28;;;1.10;;
48765;SDS011;65794;51.836;5.002;2023-09-19T15:41:27;5.70;;;1.02;;
48765;SDS011;65794;51.836;5.002;2023-09-19T15:43:54;3.58;;;1.20;;